Hua Shan, China
Current Conditions -  °F | °C
As of 2:00 AM on Sunday 21 Dec 2014 (Local Time) from ZLXY Reporting Station
Clear Clear  
Wind Chill: 26°   Ceiling: Unl
Heat Index: 32°   Visibility: 6mi
Dew Point:   Wind: 7mph
Humidity: 27%   Direction: 300°WNW
Pressure: 30.68"   Gusts: NA
Location:  34.48°N, 110.08°E
Report Text: ZLXY 201800Z 30003MPS 260V350 CAVOK 00/M17 Q1039 NOSIG
Loading
Personal Weather Stations






























Interactive Weather Map New forecast layout! Learn more

10-Day Weather Forecast

Advertisements
Track Severe Weather on mobile